Time;durP1;ratioP1;P1;durP2;ratioP2;P2;SDS_P1;SDS_P2;PMS_P1;PMS_P2;Temp;Humidity;BMP_temperature;BMP_pressure;BME280_temperature;BME280_humidity;BME280_pressure;Samples;Min_cycle;Max_cycle;Signal;HPM_P1;HPM_P2
2022/07/02 00:00:21;;;;;;;11.85;4.40;;;;;;;19.98;60.05;101590.16;4886561;28;122814;-86
2022/07/02 00:02:51;;;;;;;12.77;4.70;;;;;;;20.04;60.41;101599.31;4892401;28;122981;-86
2022/07/02 00:05:22;;;;;;;12.70;4.90;;;;;;;19.92;60.56;101587.34;4893002;28;120165;-86
2022/07/02 00:07:50;;;;;;;12.63;4.47;;;;;;;19.95;59.82;101600.28;4898941;28;121261;-86
2022/07/02 00:10:19;;;;;;;10.40;4.50;;;;;;;19.88;59.86;101587.56;4885161;28;119725;-86
2022/07/02 00:12:46;;;;;;;11.40;4.45;;;;;;;19.82;60.28;101572.81;4858948;28;122058;-86
2022/07/02 00:15:11;;;;;;;10.48;5.00;;;;;;;19.92;60.57;101595.69;4873693;28;123525;-86
2022/07/02 00:17:39;;;;;;;11.77;4.90;;;;;;;19.86;60.50;101578.16;4861849;28;121555;-85
2022/07/02 00:20:05;;;;;;;14.05;4.78;;;;;;;19.91;60.98;101591.38;4888073;28;122469;-86
2022/07/02 00:22:32;;;;;;;11.02;4.78;;;;;;;19.85;60.84;101585.75;4908034;28;120207;-85
2022/07/02 00:24:57;;;;;;;13.70;4.60;;;;;;;19.87;61.07;101586.03;4904269;28;121150;-85
2022/07/02 00:27:27;;;;;;;14.33;4.50;;;;;;;19.80;60.17;101575.31;4908383;28;120216;-85
2022/07/02 00:30:01;;;;;;;12.98;4.90;;;;;;;19.80;60.48;101586.47;4916317;28;121011;-86
2022/07/02 00:32:33;;;;;;;10.80;4.90;;;;;;;19.84;60.84;101583.44;4904904;28;120878;-85
2022/07/02 00:35:07;;;;;;;10.07;4.68;;;;;;;19.84;60.56;101581.44;4889605;28;120430;-87
2022/07/02 00:37:32;;;;;;;11.70;5.03;;;;;;;19.76;60.62;101574.03;4891484;28;119824;-85
2022/07/02 00:39:58;;;;;;;8.50;4.77;;;;;;;19.85;61.02;101585.75;4889878;28;121993;-86
2022/07/02 00:42:25;;;;;;;10.77;4.80;;;;;;;19.80;60.67;101580.13;4896024;28;123491;-86
2022/07/02 00:44:52;;;;;;;13.55;4.68;;;;;;;19.76;61.11;101576.81;4873077;28;119671;-85
2022/07/02 00:47:20;;;;;;;11.87;5.07;;;;;;;19.84;61.07;101589.03;4865495;28;122926;-85
2022/07/02 00:49:49;;;;;;;10.70;5.07;;;;;;;19.78;61.29;101579.88;4899414;28;120937;-85
2022/07/02 00:52:15;;;;;;;11.32;4.80;;;;;;;19.73;60.87;101569.44;4891739;28;120115;-85
2022/07/02 00:54:40;;;;;;;12.37;4.97;;;;;;;19.73;60.90;101575.03;4887374;28;122982;-85
2022/07/02 00:57:16;;;;;;;12.27;4.70;;;;;;;19.72;60.78;101571.47;4874901;28;119749;-86
2022/07/02 00:59:43;;;;;;;11.48;4.70;;;;;;;19.72;60.97;101574.25;4878539;28;122297;-86
2022/07/02 01:02:08;;;;;;;14.40;4.68;;;;;;;19.72;60.62;101571.47;4904212;28;121179;-85
2022/07/02 01:04:35;;;;;;;11.57;4.90;;;;;;;19.72;61.00;101579.06;4887043;28;120123;-86
2022/07/02 01:07:03;;;;;;;12.23;4.53;;;;;;;19.73;60.83;101575.78;4901265;28;122968;-86
2022/07/02 01:12:23;;;;;;;12.17;4.83;;;;;;;19.74;60.69;101587.69;4907222;28;119915;-85
2022/07/02 01:14:50;;;;;;;10.45;4.70;;;;;;;19.52;60.65;101575.03;4873628;28;123527;-85
2022/07/02 01:17:15;;;;;;;;;;;;;;;19.42;60.98;101582.03;4872691;28;120199;-85
2022/07/02 01:19:41;;;;;;;;;;;;;;;19.30;61.20;101578.38;4893316;28;121683;-85
2022/07/02 01:22:39;;;;;;;;;;;;;;;19.22;61.34;101576.50;4873959;28;123496;-85
2022/07/02 01:25:05;;;;;;;;;;;;;;;19.11;61.59;101571.56;4852171;28;122175;-85
2022/07/02 01:27:31;;;;;;;;;;;;;;;19.03;61.81;101567.69;4886507;28;121289;-86
2022/07/02 01:29:56;;;;;;;;;;;;;;;18.94;61.99;101570.63;4887780;28;122971;-85
2022/07/02 01:32:22;;;;;;;;;;;;;;;18.87;62.22;101574.56;4903701;28;120225;-85
2022/07/02 01:34:49;;;;;;;;;;;;;;;18.79;62.22;101572.72;4892792;28;121861;-85
2022/07/02 01:37:16;;;;;;;;;;;;;;;18.70;62.14;101579.19;4870093;28;119995;-85
2022/07/02 01:39:42;;;;;;;;;;;;;;;18.61;62.27;101579.25;4883983;28;121625;-85
2022/07/02 01:42:08;;;;;;;;;;;;;;;18.52;62.49;101574.59;4887407;28;123762;-86
2022/07/02 01:44:34;;;;;;;;;;;;;;;18.48;62.78;101576.06;4871684;28;120290;-85
2022/07/02 01:47:04;;;;;;;;;;;;;;;18.41;62.73;101575.19;4873863;28;122534;-85
2022/07/02 01:49:30;;;;;;;;;;;;;;;18.37;63.21;101577.41;4892214;28;122875;-85
2022/07/02 01:51:55;;;;;;;;;;;;;;;18.33;63.16;101579.63;4882024;28;119844;-85
2022/07/02 01:54:21;;;;;;;;;;;;;;;18.31;63.24;101589.69;4897148;28;122391;-85
2022/07/02 01:56:49;;;;;;;;;;;;;;;18.27;63.44;101589.91;4911914;28;123287;-86
2022/07/02 01:59:16;;;;;;;;;;;;;;;18.23;63.39;101583.78;4886494;28;122264;-85
2022/07/02 02:01:42;;;;;;;;;;;;;;;18.19;63.38;101585.97;4901526;28;123782;-85
2022/07/02 02:04:07;;;;;;;;;;;;;;;18.18;63.53;101598.31;4889103;28;120026;-85
2022/07/02 02:06:33;;;;;;;;;;;;;;;18.15;63.62;101585.41;4918160;28;120942;-86
2022/07/02 02:08:58;;;;;;;;;;;;;;;18.12;63.69;101589.16;4903512;28;120555;-86
2022/07/02 02:11:24;;;;;;;;;;;;;;;18.10;63.89;101594.41;4905933;28;120309;-85
2022/07/02 02:13:50;;;;;;;;;;;;;;;18.07;63.90;101598.94;4903829;28;119849;-86
2022/07/02 02:16:15;;;;;;;;;;;;;;;18.07;64.04;101603.72;4870758;28;123480;-86
2022/07/02 02:18:41;;;;;;;;;;;;;;;18.07;64.21;101604.47;4874917;28;120521;-85
2022/07/02 02:21:06;;;;;;;;;;;;;;;18.06;64.21;101608.50;4868490;28;123197;-85
2022/07/02 02:23:34;;;;;;;;;;;;;;;18.06;64.13;101604.97;4898214;28;119735;-85
2022/07/02 02:26:00;;;;;;;;;;;;;;;18.04;64.24;101605.44;4889214;28;121695;-85
2022/07/02 02:28:26;;;;;;;;;;;;;;;18.03;64.17;101603.91;4869661;28;122841;-85
2022/07/02 02:30:51;;;;;;;;;;;;;;;18.02;64.24;101607.16;4895555;28;121596;-85
2022/07/02 02:33:17;;;;;;;;;;;;;;;18.01;64.29;101603.63;4912881;28;122320;-85
2022/07/02 02:35:42;;;;;;;;;;;;;;;18.00;64.17;101606.88;4896154;28;123730;-85
2022/07/02 02:38:08;;;;;;;;;;;;;;;17.97;64.05;101605.03;4888549;28;120943;-85
2022/07/02 02:40:33;;;;;;;;;;;;;;;17.95;64.16;101607.53;4927125;28;120715;-85
2022/07/02 02:42:59;;;;;;;;;;;;;;;17.93;63.88;101612.81;4913717;28;119897;-85
2022/07/02 02:45:24;;;;;;;;;;;;;;;17.89;63.93;101621.31;4893389;28;119481;-85
2022/07/02 02:47:50;;;;;;;;;;;;;;;17.86;64.05;101618.75;4893691;28;120088;-85
2022/07/02 02:50:15;;;;;;;;;;;;;;;17.83;64.09;101622.47;4899275;28;119643;-85
2022/07/02 02:52:41;;;;;;;;;;;;;;;17.81;64.12;101622.19;4901400;28;119975;-85
2022/07/02 02:55:06;;;;;;;;;;;;;;;17.77;64.06;101614.81;4888129;28;123800;-85
2022/07/02 02:57:32;;;;;;;;;;;;;;;17.75;64.17;101624.88;4901777;28;120275;-85
2022/07/02 03:00:01;;;;;;;;;;;;;;;17.73;64.12;101616.25;4906739;28;122430;-85
2022/07/02 03:02:26;;;;;;;;;;;;;;;17.72;64.38;101618.25;4877578;28;120097;-85
2022/07/02 03:04:52;;;;;;;;;;;;;;;17.70;64.28;101619.97;4907897;28;119869;-85
2022/07/02 03:07:17;;;;;;;;;;;;;;;17.70;64.39;101622.75;4911952;28;121147;-85
2022/07/02 03:09:43;;;;;;;;;;;;;;;17.70;64.60;101623.50;4896202;28;119853;-85
2022/07/02 03:12:09;;;;;;;;;;;;;;;17.69;64.41;101630.31;4896121;28;119763;-86
2022/07/02 03:14:35;;;;;;;;;;;;;;;17.68;64.32;101645.41;4885822;28;123026;-85
2022/07/02 03:17:00;;;;;;;;;;;;;;;17.69;64.68;101637.88;4880285;28;119893;-85
2022/07/02 03:19:26;;;;;;;;;;;;;;;17.68;64.41;101645.41;4894577;28;121574;-85
2022/07/02 03:21:51;;;;;;;;;;;;;;;17.70;64.97;101634.59;4896547;28;120758;-85
2022/07/02 03:24:17;;;;;;;;;;;;;;;17.72;64.75;101640.44;4904780;28;119782;-85
2022/07/02 03:26:42;;;;;;;;;;;;;;;17.73;64.86;101644.75;4876656;28;123318;-85
2022/07/02 03:29:08;;;;;;;;;;;;;;;17.73;64.81;101636.44;4886605;28;120320;-85
2022/07/02 03:31:33;;;;;;;;;;;;;;;17.73;64.69;101639.19;4879990;28;122491;-85
2022/07/02 03:33:59;;;;;;;;;;;;;;;17.74;64.84;101639.97;4878969;28;123551;-85
2022/07/02 03:36:24;;;;;;;;;;;;;;;17.75;64.98;101645.06;4891111;28;119943;-85
2022/07/02 03:38:50;;;;;;;;;;;;;;;17.78;65.26;101649.66;4878030;28;122602;-85
2022/07/02 03:41:15;;;;;;;;;;;;;;;17.81;65.21;101647.16;4879254;28;123253;-85
2022/07/02 03:43:41;;;;;;;;;;;;;;;17.85;65.36;101647.75;4900136;28;119690;-85
2022/07/02 03:46:06;;;;;;;;;;;;;;;17.89;65.50;101648.31;4879265;28;123134;-85
2022/07/02 03:48:32;;;;;;;;;;;;;;;17.91;65.33;101646.59;4896337;28;120200;-85
2022/07/02 03:50:57;;;;;;;;;;;;;;;17.94;65.24;101653.19;4911908;28;119575;-85
2022/07/02 03:53:23;;;;;;;;;;;;;;;17.97;65.35;101653.00;4895171;28;122853;-85
2022/07/02 03:55:48;;;;;;;;;;;;;;;18.01;65.25;101652.84;4905105;28;119646;-85
2022/07/02 03:58:14;;;;;;;;;;;;;;;18.05;65.47;101645.06;4878834;28;123116;-85
2022/07/02 04:00:39;;;;;;;;;;;;;;;18.12;65.60;101655.03;4910431;28;122759;-85
2022/07/02 04:03:05;;;;;;;;;;;;;;;18.18;65.68;101648.31;4895054;28;120131;-85
2022/07/02 04:05:30;;;;;;;;;;;;;;;18.26;65.77;101649.47;4894925;28;122056;-85
2022/07/02 04:07:56;;;;;;;;;;;;;;;18.36;65.92;101655.66;4876897;28;119732;-85
2022/07/02 04:10:22;;;;;;;;;;;;;;;18.44;65.99;101658.81;4879746;28;121107;-85
2022/07/02 04:12:47;;;;;;;;;;;;;;;18.52;65.85;101657.94;4874924;28;123989;-85
2022/07/02 04:15:13;;;;;;;;;;;;;;;18.58;65.88;101658.03;4873835;28;119715;-85
2022/07/02 04:17:38;;;;;;;;;;;;;;;18.61;65.81;101657.81;4876933;28;121484;-85
2022/07/02 04:20:04;;;;;;;;;;;;;;;18.62;65.64;101662.16;4880975;28;120672;-85
2022/07/02 04:22:29;;;;;;;;;;;;;;;18.65;65.64;101663.22;4896065;28;120347;-85
2022/07/02 04:24:55;;;;;;;;;;;;;;;18.69;65.57;101666.53;4893874;28;121604;-84
2022/07/02 04:27:21;;;;;;;;;;;;;;;18.72;65.72;101660.03;4896915;28;123047;-85
2022/07/02 04:29:46;;;;;;;;;;;;;;;18.76;65.68;101660.59;4912071;28;122062;-85
2022/07/02 04:32:12;;;;;;;;;;;;;;;18.80;65.69;101671.53;4876111;28;122361;-85
2022/07/02 04:34:37;;;;;;;;;;;;;;;18.82;65.68;101664.22;4902779;28;120114;-85
2022/07/02 04:37:03;;;;;;;;;;;;;;;18.84;65.69;101669.28;4898288;28;119833;-86
2022/07/02 04:39:29;;;;;;;;;;;;;;;18.85;65.68;101663.25;4875909;28;120990;-85
2022/07/02 04:41:54;;;;;;;;;;;;;;;18.86;65.71;101661.22;4878181;28;120491;-85
2022/07/02 04:44:20;;;;;;;;;;;;;;;18.89;65.77;101666.59;4911058;28;121616;-86
2022/07/02 04:46:45;;;;;;;;;;;;;;;18.91;66.00;101666.88;4893813;28;123542;-85
2022/07/02 04:49:11;;;;;;;;;;;;;;;18.93;66.18;101666.41;4882309;28;119952;-85
2022/07/02 04:51:36;;;;;;;;;;;;;;;18.96;66.21;101671.00;4879209;28;123459;-85
2022/07/02 04:54:02;;;;;;;;;;;;;;;18.99;66.19;101672.81;4878078;28;119866;-86
2022/07/02 04:56:51;;;;;;;;;;;;;;;19.02;66.20;101671.81;4883483;28;120226;-84
2022/07/02 04:59:17;;;;;;;;;;;;;;;19.05;66.41;101684.75;4894694;28;120267;-85
2022/07/02 05:01:42;;;;;;;;;;;;;;;19.08;66.42;101677.47;4889282;28;120880;-85
2022/07/02 05:04:08;;;;;;;;;;;;;;;19.11;66.54;101679.25;4904487;28;120124;-86
2022/07/02 05:06:33;;;;;;;;;;;;;;;19.15;66.67;101677.03;4895889;28;123657;-85
2022/07/02 05:08:59;;;;;;;;;;;;;;;19.18;66.67;101674.06;4896387;28;119825;-85
2022/07/02 05:11:24;;;;;;;;;;;;;;;19.21;66.93;101666.78;4876036;28;123399;-85
2022/07/02 05:14:03;;;;;;;;;;;;;;;19.26;66.94;101677.19;4865411;28;120339;-85
2022/07/02 05:16:29;;;;;;;;;;;;;;;19.27;67.09;101673.16;4872585;28;122684;-85
2022/07/02 05:18:54;;;;;;;;;;;;;;;19.30;66.92;101684.06;4897464;28;123474;-86
2022/07/02 05:21:46;;;;;;;;;;;;;;;19.35;67.13;101688.16;4867289;28;119899;-86
2022/07/02 05:24:17;;;;;;;;;;;;;;;19.40;66.98;101683.91;4910284;28;120780;-85
2022/07/02 05:26:42;;;;;;;;;;;;;;;19.45;67.22;101686.03;4875223;28;123438;-86
2022/07/02 05:29:31;;;;;;;;;;;;;;;19.49;67.34;101687.34;4878933;28;120078;-86
2022/07/02 05:31:56;;;;;;;;;;;;;;;19.55;67.29;101688.19;4893799;28;121787;-86
2022/07/02 05:34:22;;;;;;;;;;;;;;;19.60;67.39;101683.94;4887826;28;119806;-86
2022/07/02 05:36:47;;;;;;;;;;;;;;;19.63;67.61;101689.28;4871148;28;122705;-85
2022/07/02 05:39:13;;;;;;;;;;;;;;;19.70;67.55;101687.34;4872064;28;123405;-86
2022/07/02 05:41:39;;;;;;;;;;;;;;;19.72;67.53;101693.94;4870452;28;120013;-86
2022/07/02 05:44:04;;;;;;;;;;;;;;;19.76;67.44;101694.50;4873048;28;122130;-85
2022/07/02 05:46:30;;;;;;;;;;;;;;;19.79;67.40;101699.06;4888227;28;120788;-85
2022/07/02 05:48:55;;;;;;;;;;;;;;;19.82;67.43;101698.09;4871321;28;120065;-86
2022/07/02 05:51:21;;;;;;;;;;;;;;;19.86;67.48;101711.78;4888652;28;122297;-86
2022/07/02 05:53:46;;;;;;;;;;;;;;;19.89;67.67;101710.84;4875779;28;123478;-85
2022/07/02 05:56:12;;;;;;;;;;;;;;;19.91;67.31;101714.66;4888504;28;122858;-86
2022/07/02 05:58:38;;;;;;;;;;;;;;;19.95;67.54;101708.88;4878398;28;123118;-85
2022/07/02 06:01:03;;;;;;;;;;;;;;;19.98;67.24;101718.25;4888499;28;119870;-85
2022/07/02 06:03:29;;;;;;;;;;;;;;;20.00;67.19;101710.94;4878250;28;122641;-86
2022/07/02 06:08:39;;;;;;;;;;;;;;;20.06;66.80;101717.31;4905188;28;119927;-85
2022/07/02 06:11:08;;;;;;;;;;;;;;;20.07;66.68;101720.88;4870821;28;121803;-85
2022/07/02 06:13:34;;;;;;;;;;;;;;;20.10;66.55;101725.44;4912571;28;120302;-86
2022/07/02 06:15:59;;;;;;;;;;;;;;;20.14;66.85;101732.34;4900771;28;120166;-87
2022/07/02 06:18:25;;;;;;;;;;;;;;;20.17;66.69;101722.25;4895442;28;123750;-86
2022/07/02 06:20:51;;;;;;;;;;;;;;;20.19;66.56;101723.28;4889236;28;121847;-86
2022/07/02 06:23:19;;;;;;;;;;;;;;;20.23;66.82;101732.19;4897884;28;123067;-85
2022/07/02 06:25:45;;;;;;;;;;;;;;;20.27;66.52;101736.75;4885023;28;123132;-87
2022/07/02 06:28:10;;;;;;;;;;;;;;;20.29;66.51;101739.81;4868753;28;120332;-85
2022/07/02 06:30:36;;;;;;;;;;;;;;;20.31;66.21;101742.88;4872205;28;123405;-87
2022/07/02 06:33:01;;;;;;;;;;;;;;;20.32;66.11;101741.63;4865676;28;123529;-86
2022/07/02 06:35:27;;;;;;;;;;;;;;;20.34;65.97;101744.66;4867300;28;120114;-85
2022/07/02 06:37:53;;;;;;;;;;;;;;;20.36;66.14;101751.31;4889530;28;120256;-87
2022/07/02 06:40:18;;;;;;;;;;;;;;;20.38;65.86;101751.56;4887144;28;120012;-86
2022/07/02 06:42:44;;;;;;;;;;;;;;;20.42;65.90;101752.13;4888763;28;122961;-87
2022/07/02 06:45:09;;;;;;;;;;;;;;;20.45;66.18;101742.03;4901192;28;121111;-86
2022/07/02 06:47:38;;;;;;;;;;;;;;;20.48;65.88;101754.97;4888051;28;119925;-86
2022/07/02 06:50:06;;;;;;;;;;;;;;;20.51;66.07;101753.97;4872659;28;121961;-86
2022/07/02 06:52:31;;;;;;;;;;;;;;;20.54;65.93;101750.19;4888112;28;120803;-86
2022/07/02 06:54:57;;;;;;;;;;;;;;;20.52;65.47;101759.06;4878090;28;119899;-86
2022/07/02 06:57:23;;;;;;;;;;;;;;;20.54;65.22;101762.13;4911150;28;120076;-85
2022/07/02 07:00:23;;;;;;;;;;;;;;;20.57;65.01;101754.03;4850293;28;121175;-85
2022/07/02 07:02:49;;;;;;;;;;;;;;;20.61;65.31;101762.94;4896257;28;121799;-86
2022/07/02 07:05:16;;;;;;;;;;;;;;;20.64;64.91;101759.94;4895967;28;123610;-87
2022/07/02 07:07:41;;;;;;;;;;;;;;;20.68;64.79;101757.69;4895275;28;120478;-88
2022/07/02 07:10:09;;;;;;;;;;;;;;;20.69;64.35;101770.34;4880770;28;121961;-86
2022/07/02 07:12:35;;;;;;;;;;;;;;;20.72;64.38;101774.16;4895966;28;123346;-86
2022/07/02 07:15:04;;;;;;;;;;;;;;;20.74;64.26;101766.84;4911304;28;119953;-86
2022/07/02 07:17:30;;;;;;;;;;;;;;;20.76;64.28;101769.91;4891683;28;122803;-85
2022/07/02 07:19:56;;;;;;;;;;;;;;;20.77;64.01;101771.41;4882071;28;124036;-85
2022/07/02 07:22:21;;;;;;;;;;;;;;;20.81;63.80;101763.59;4902117;28;122104;-86
2022/07/02 07:24:47;;;;;;;;;;;;;;;20.84;63.72;101767.44;4885453;28;123260;-85
2022/07/02 07:27:12;;;;;;;;;;;;;;;20.86;63.50;101772.50;4881955;28;121502;-86
2022/07/02 07:29:38;;;;;;;;;;;;;;;20.87;63.53;101765.69;4895844;28;121723;-87
2022/07/02 07:32:03;;;;;;;;;;;;;;;20.91;63.37;101763.41;4887835;28;124580;-85
2022/07/02 07:34:29;;;;;;;;;;;;;;;20.94;63.34;101768.00;4910661;28;121075;-86
2022/07/02 07:36:55;;;;;;;;;;;;;;;20.98;62.79;101768.53;4879295;28;122242;-85
2022/07/02 07:39:21;;;;;;;;;;;;;;;21.04;63.11;101769.31;4895370;28;123663;-85
2022/07/02 07:41:46;;;;;;;;;;;;;;;21.11;62.79;101774.47;4906286;28;120257;-85
2022/07/02 07:44:12;;;;;;;;;;;;;;;21.15;62.49;101777.78;4908122;28;123650;-85
2022/07/02 07:46:40;;;;;;;;;;;;;;;21.18;62.32;101779.56;4862882;28;121208;-85
2022/07/02 07:49:05;;;;;;;;;;;;;;;21.23;62.15;101778.06;4911169;28;121937;-85
2022/07/02 07:51:31;;;;;;;;;;;;;;;21.26;61.97;101772.28;4916084;28;120395;-85
2022/07/02 07:53:57;;;;;;;;;;;;;;;21.31;62.66;101784.75;4914388;28;120267;-85
2022/07/02 07:56:22;;;;;;;;;;;;;;;21.34;62.74;101781.72;4877095;28;122495;-85
2022/07/02 07:58:48;;;;;;;;;;;;;;;21.40;61.88;101778.97;4891248;28;121376;-86
2022/07/02 08:01:13;;;;;;;;;;;;;;;21.43;61.60;101783.53;4878738;28;120140;-85
2022/07/02 08:03:39;;;;;;;;;;;;;;;21.49;62.27;101789.91;4914203;28;121038;-85
2022/07/02 08:06:04;;;;;;;;;;;;;;;21.57;61.66;101777.03;4927440;28;121078;-85
2022/07/02 08:08:30;;;;;;;;;;;;;;;21.67;61.87;101777.56;4910399;28;122717;-85
2022/07/02 08:10:55;;;;;;;;;;;;;;;21.78;61.23;101777.63;4911696;28;121290;-87
2022/07/02 08:13:21;;;;;;;;;;;;;;;21.89;60.79;101772.06;4894368;28;120628;-85
2022/07/02 08:15:47;;;;;;;;;;;;;;;21.99;60.53;101778.16;4875387;28;122776;-85
2022/07/02 08:18:12;;;;;;;;;;;;;;;22.14;59.77;101780.78;4889527;28;124390;-86
2022/07/02 08:20:38;;;;;;;;;;;;;;;22.25;59.55;101780.81;4910456;28;121945;-86
2022/07/02 08:23:03;;;;;;;;;;;;;;;22.38;59.53;101785.91;4905429;28;121096;-86
2022/07/02 08:25:30;;;;;;;;;;;;;;;22.49;58.72;101781.09;4869106;28;124490;-85
2022/07/02 08:27:56;;;;;;;;;;;;;;;22.55;58.24;101781.09;4900158;28;123347;-87
2022/07/02 08:30:21;;;;;;;;;;;;;;;22.55;57.90;101776.25;4888933;28;124663;-85
2022/07/02 08:32:47;;;;;;;;;;;;;;;22.61;58.35;101779.81;4887585;28;121406;-85
2022/07/02 08:35:13;;;;;;;;;;;;;;;22.67;57.35;101788.97;4884682;28;124065;-85
2022/07/02 08:37:39;;;;;;;;;;;;;;;22.70;56.84;101792.75;4874293;28;124595;-86
2022/07/02 08:40:04;;;;;;;;;;;;;;;22.77;56.81;101788.72;4903552;28;121865;-86
2022/07/02 08:42:31;;;;;;;;;;;;;;;22.84;56.50;101794.56;4879691;28;123436;-85
2022/07/02 08:44:58;;;;;;;;;;;;;;;22.92;56.49;101789.22;4871994;28;125149;-85
2022/07/02 08:47:25;;;;;;;;;;;;;;;23.05;57.27;101797.88;4879578;28;121887;-85
2022/07/02 08:49:51;;;;;;;;;;;;;;;23.18;57.22;101797.31;4908653;28;122605;-85
2022/07/02 08:52:17;;;;;;;;;;;;;;;23.28;56.72;101795.78;4908899;28;122442;-86
2022/07/02 08:54:44;;;;;;;;;;;;;;;23.36;55.97;101807.22;4877611;28;124380;-86
2022/07/02 08:57:11;;;;;;;;;;;;;;;23.36;54.78;101815.63;4893504;28;124932;-85
2022/07/02 08:59:36;;;;;;;;;;;;;;;23.29;54.48;101814.09;4877367;28;122856;-85
2022/07/02 09:02:02;;;;;;;;;;;;;;;23.25;54.20;101817.16;4892910;28;124207;-84
2022/07/02 09:04:28;;;;;;;;;;;;;;;23.24;53.53;101807.25;4892933;28;125009;-85
2022/07/02 09:06:53;;;;;;;;;;;;;;;23.28;54.32;101813.34;4876709;28;123286;-87
2022/07/02 09:09:19;;;;;;;;;;;;;;;23.28;54.20;101804.19;4896606;28;124620;-85
2022/07/02 09:11:46;;;;;;;;;;;;;;;23.28;54.02;101802.16;4885599;28;122559;-86
2022/07/02 09:14:12;;;;;;;;;;;;;;;23.34;54.21;101809.75;4875846;28;124093;-86
2022/07/02 09:16:38;;;;;;;;;;;;;;;23.37;53.67;101809.50;4874712;28;125444;-85
2022/07/02 09:19:04;;;;;;;;;;;;;;;23.44;53.53;101797.78;4890793;28;122907;-86
2022/07/02 09:21:39;;;;;;;;;;;;;;;23.54;53.82;101806.66;4889515;28;122265;-88
2022/07/02 09:24:05;;;;;;;;;;;;;;;23.56;52.87;101812.53;4904842;28;126193;-86
2022/07/02 09:26:33;;;;;;;;;;;;;;;23.56;53.02;101810.50;4872673;28;123342;-86
2022/07/02 09:29:01;;;;;;;;;;;;;;;23.55;52.95;101805.38;4891901;28;124280;-85
2022/07/02 09:31:46;;;;;;;;;;;;;;;23.50;52.01;101806.16;4888301;28;121859;-86
2022/07/02 09:34:22;;;;;;;;;;;;;;;23.45;52.45;101802.09;4889195;28;124418;-88
2022/07/02 09:36:47;;;;;;;;;;;;;;;23.40;52.27;101818.91;4871324;28;125964;-88
2022/07/02 09:39:13;;;;;;;;;;;;;;;23.36;51.36;101812.81;4873091;28;122073;-87
2022/07/02 09:41:43;;;;;;;;;;;;;;;23.32;51.42;101806.72;4873449;28;124043;-87
2022/07/02 09:44:11;;;;;;;;;;;;;;;23.30;51.69;101801.63;4873144;28;125260;-86
2022/07/02 09:46:42;;;;;;;;;;;;;;;23.30;51.75;101801.63;4888151;28;122224;-87
2022/07/02 09:49:08;;;;;;;;;;;;;;;23.28;50.62;101818.94;4891695;28;124066;-87
2022/07/02 09:51:45;;;;;;;;;;;;;;;23.28;50.81;101796.53;4879467;28;124986;-88
2022/07/02 09:54:16;;;;;;;;;;;;;;;23.25;50.72;101796.81;4875272;28;123224;-87
2022/07/02 09:56:49;;;;;;;;;;;;;;;23.22;51.32;101793.00;4890167;28;125489;-89
2022/07/02 09:59:14;;;;;;;;;;;;;;;23.22;51.23;101793.00;4872897;28;121791;-86
2022/07/02 10:01:43;;;;;;;;;;;;;;;23.26;51.55;101804.69;4888440;28;124503;-85
2022/07/02 10:04:12;;;;;;;;;;;;;;;23.29;51.45;101797.31;4875648;28;124538;-85
2022/07/02 10:06:38;;;;;;;;;;;;;;;23.31;51.01;101805.19;4874249;28;121812;-86
2022/07/02 10:09:07;;;;;;;;;;;;;;;23.33;51.49;101797.03;4889965;28;124137;-86
2022/07/02 10:11:33;;;;;;;;;;;;;;;23.37;50.97;101800.34;4906746;28;124832;-88
2022/07/02 10:13:58;;;;;;;;;;;;;;;23.43;51.20;101795.50;4912131;28;122016;-85
2022/07/02 10:16:24;;;;;;;;;;;;;;;23.47;50.15;101796.00;4874216;28;126315;-85
2022/07/02 10:18:50;;;;;;;;;;;;;;;23.45;50.15;101793.72;4890752;28;123965;-86
2022/07/02 10:21:16;;;;;;;;;;;;;;;23.44;51.24;101803.38;4875171;28;124276;-85
2022/07/02 10:23:45;;;;;;;;;;;;;;;23.44;50.83;101797.03;4874871;28;126337;-84
2022/07/02 10:26:13;;;;;;;;;;;;;;;23.45;50.81;101801.34;4891675;28;122057;-85
2022/07/02 10:28:39;;;;;;;;;;;;;;;23.44;51.36;101800.59;4891695;28;123599;-86
2022/07/02 10:31:06;;;;;;;;;;;;;;;23.41;50.39;101798.78;4906281;28;125084;-86
2022/07/02 10:33:47;;;;;;;;;;;;;;;23.33;50.33;101799.84;4875969;28;121793;-86
2022/07/02 10:36:14;;;;;;;;;;;;;;;23.24;50.07;101801.66;4911588;28;123574;-86
2022/07/02 10:38:40;;;;;;;;;;;;;;;23.21;49.95;101805.47;4906849;28;123175;-85
2022/07/02 10:41:06;;;;;;;;;;;;;;;23.19;49.94;101808.03;4874731;28;124920;-85
2022/07/02 10:43:33;;;;;;;;;;;;;;;23.15;50.16;101804.72;4875459;28;125236;-86
2022/07/02 10:46:01;;;;;;;;;;;;;;;23.15;51.01;101810.31;4890240;28;121788;-84
2022/07/02 10:48:27;;;;;;;;;;;;;;;23.18;51.75;101809.28;4891305;28;123763;-85
2022/07/02 10:50:55;;;;;;;;;;;;;;;23.19;51.32;101799.63;4889821;28;122606;-86
2022/07/02 10:53:47;;;;;;;;;;;;;;;23.17;51.35;101796.56;4891070;28;123328;-85
2022/07/02 10:56:12;;;;;;;;;;;;;;;23.20;51.12;101800.41;4905335;28;121961;-86
2022/07/02 10:58:38;;;;;;;;;;;;;;;23.25;50.81;101794.78;4892570;28;125438;-85
2022/07/02 11:01:24;;;;;;;;;;;;;;;23.33;51.12;101797.03;4884431;28;121843;-86
2022/07/02 11:03:59;;;;;;;;;;;;;;;23.38;50.60;101791.41;4871362;28;125308;-85
2022/07/02 11:06:26;;;;;;;;;;;;;;;23.44;50.78;101788.63;4903375;28;122966;-86
2022/07/02 11:08:52;;;;;;;;;;;;;;;23.47;50.40;101779.94;4889190;28;123843;-86
2022/07/02 11:11:29;;;;;;;;;;;;;;;23.50;49.66;101794.97;4872965;28;126077;-85
2022/07/02 11:13:58;;;;;;;;;;;;;;;23.53;49.33;101796.72;4890253;28;122277;-85
2022/07/02 11:16:27;;;;;;;;;;;;;;;23.55;49.26;101780.94;4889438;28;122079;-85
2022/07/02 11:18:55;;;;;;;;;;;;;;;23.58;49.02;101787.56;4888475;28;125007;-86
2022/07/02 11:21:21;;;;;;;;;;;;;;;23.58;49.24;101791.13;4893881;28;122636;-86
2022/07/02 11:23:48;;;;;;;;;;;;;;;23.58;48.49;101788.31;4874980;28;125065;-85
2022/07/02 11:26:18;;;;;;;;;;;;;;;23.58;48.34;101795.97;4871576;28;122494;-86
2022/07/02 11:28:43;;;;;;;;;;;;;;;23.57;48.22;101788.84;4887343;28;124899;-85
2022/07/02 11:31:10;;;;;;;;;;;;;;;23.59;47.72;101786.28;4886429;28;125472;-85
2022/07/02 11:33:36;;;;;;;;;;;;;;;23.61;48.77;101792.13;4920159;28;123645;-86
2022/07/02 11:36:01;;;;;;;;;;;;;;;23.61;48.29;101797.75;4887806;28;123626;-86
2022/07/02 11:38:35;;;;;;;;;;;;;;;23.58;48.08;101795.97;4889713;28;123324;-85
2022/07/02 11:41:00;;;;;;;;;;;;;;;23.60;48.55;101798.25;4910158;28;122971;-85
2022/07/02 11:43:26;;;;;;;;;;;;;;;23.62;48.55;101790.84;4889888;28;122969;-85
2022/07/02 11:45:52;;;;;;;;;;;;;;;23.65;48.95;101792.63;4889883;28;123764;-86
2022/07/02 11:48:23;;;;;;;;;;;;;;;23.60;48.88;101790.63;4887216;28;123713;-85
2022/07/02 11:50:56;;;;;;;;;;;;;;;23.56;48.71;101804.13;4873608;28;125131;-86
2022/07/02 11:53:21;;;;;;;;;;;;;;;23.51;48.56;101796.47;4886894;28;122595;-88
2022/07/02 11:55:47;;;;;;;;;;;;;;;23.48;48.56;101800.31;4886526;28;126031;-87
2022/07/02 11:58:15;;;;;;;;;;;;;;;23.47;48.83;101793.19;4888112;28;125622;-85
2022/07/02 12:00:40;;;;;;;;;;;;;;;23.47;47.97;101791.16;4888449;28;122177;-85
2022/07/02 12:03:06;;;;;;;;;;;;;;;23.49;48.10;101799.81;4877762;28;123548;-86
2022/07/02 12:05:32;;;;;;;;;;;;;;;23.52;48.04;101801.56;4889315;28;121814;-84
2022/07/02 12:07:57;;;;;;;;;;;;;;;23.56;48.13;101796.50;4907566;28;122083;-86
2022/07/02 12:10:23;;;;;;;;;;;;;;;23.60;48.46;101785.00;4870663;28;125215;-85
2022/07/02 12:12:49;;;;;;;;;;;;;;;23.64;48.57;101793.91;4903355;28;123227;-85
2022/07/02 12:15:14;;;;;;;;;;;;;;;23.69;48.36;101790.34;4887967;28;125096;-84
2022/07/02 12:17:47;;;;;;;;;;;;;;;23.73;48.18;101790.81;4888696;28;125254;-85
2022/07/02 12:20:12;;;;;;;;;;;;;;;23.73;48.25;101788.03;4872526;28;122356;-84
2022/07/02 12:22:38;;;;;;;;;;;;;;;23.74;47.48;101797.94;4904550;28;124136;-85